Time;durP1;ratioP1;P1;durP2;ratioP2;P2;SDS_P1;SDS_P2;PMS_P1;PMS_P2;Temp;Humidity;BMP_temperature;BMP_pressure;BME280_temperature;BME280_humidity;BME280_pressure;Samples;Min_cycle;Max_cycle;Signal;HPM_P1;HPM_P2
2022/01/28 00:01:26;;;;;;;;;40.25;36.00;;;;;9.52;75.43;103080.00;6314100;22;45407;-86
2022/01/28 00:04:00;;;;;;;;;42.25;35.00;;;;;9.55;75.73;103064.34;6285895;22;44818;-85
2022/01/28 00:06:26;;;;;;;;;41.00;36.50;;;;;9.53;75.64;103067.75;6311716;22;45379;-86
2022/01/28 00:08:53;;;;;;;;;46.75;38.75;;;;;9.52;75.47;103066.84;6289157;22;44988;-87
2022/01/28 00:11:21;;;;;;;;;44.00;35.25;;;;;9.61;75.53;103082.09;6312857;22;45561;-85
2022/01/28 00:13:54;;;;;;;;;40.00;35.00;;;;;9.56;75.60;103083.63;6286202;22;45801;-85
2022/01/28 00:16:49;;;;;;;;;43.25;36.75;;;;;9.54;75.66;103080.03;6285995;22;45303;-85
2022/01/28 00:19:35;;;;;;;;;51.50;39.50;;;;;9.52;75.27;103072.13;6312925;22;45297;-85
2022/01/28 00:38:35;;;;;;;;;41.25;35.50;;;;;9.57;75.75;103111.72;6309911;22;45239;-81
2022/01/28 00:41:00;;;;;;;;;44.75;37.50;;;;;9.61;75.62;103111.00;6311597;22;45481;-81
2022/01/28 00:43:25;;;;;;;;;35.25;34.00;;;;;9.54;75.84;103103.72;6310627;22;45154;-80
2022/01/28 00:45:55;;;;;;;;;47.00;38.75;;;;;9.51;75.76;103107.13;6310266;22;45278;-82
2022/01/28 00:48:21;;;;;;;;;48.50;39.75;;;;;9.63;75.80;103120.75;6309858;22;45231;-81
2022/01/28 00:50:49;;;;;;;;;47.75;37.50;;;;;9.58;75.88;103116.16;6309958;22;45230;-82
2022/01/28 00:53:14;;;;;;;;;46.00;36.75;;;;;9.52;75.57;103098.41;6309432;22;46302;-82
2022/01/28 00:55:42;;;;;;;;;41.75;38.00;;;;;9.55;76.04;103106.41;6308117;22;45584;-82
2022/01/28 00:58:07;;;;;;;;;44.75;39.25;;;;;9.64;75.95;103124.28;6310319;22;45275;-82
2022/01/28 01:00:33;;;;;;;;;45.75;37.25;;;;;9.57;76.05;103112.63;6310014;22;45342;-82
2022/01/28 01:02:58;;;;;;;;;43.00;35.00;;;;;9.68;75.79;103134.97;6281809;22;47183;-82
2022/01/28 01:05:26;;;;;;;;;47.50;37.00;;;;;9.61;75.76;103116.25;6310138;22;45353;-82
2022/01/28 01:07:54;;;;;;;;;42.25;38.00;;;;;9.71;75.77;103131.56;6310229;22;45172;-82
2022/01/28 01:10:23;;;;;;;;;42.00;35.00;;;;;9.60;75.66;103114.50;6282050;22;45187;-81
2022/01/28 01:12:54;;;;;;;;;46.50;39.25;;;;;9.53;75.61;103117.72;6281600;22;46904;-82
2022/01/28 01:15:26;;;;;;;;;45.25;37.25;;;;;9.58;75.89;103135.44;6281690;22;45284;-82
2022/01/28 01:25:30;;;;;;;;;24.50;21.00;;;;;9.51;75.82;103146.56;6309815;22;45181;-81
2022/01/28 01:27:57;;;;;;;;;31.00;26.50;;;;;9.53;76.07;103150.16;6310310;22;45258;-80
2022/01/28 01:30:38;;;;;;;;;32.75;27.50;;;;;9.49;76.14;103148.25;6310311;22;45361;-81
2022/01/28 01:33:03;;;;;;;;;41.00;33.50;;;;;9.45;75.88;103138.44;6281750;22;46094;-81
2022/01/28 01:35:29;;;;;;;;;33.00;29.50;;;;;9.39;75.93;103125.06;6310075;22;45117;-81
2022/01/28 01:37:59;;;;;;;;;35.25;28.50;;;;;9.42;75.72;103140.94;6310783;22;45144;-81
2022/01/28 01:40:32;;;;;;;;;24.25;22.25;;;;;9.46;75.71;103150.72;6282416;22;45294;-81
2022/01/28 01:43:12;;;;;;;;;32.50;28.25;;;;;9.37;75.70;103132.88;6282717;22;47145;-80
2022/01/28 01:53:39;;;;;;;;;35.00;31.00;;;;;9.38;75.80;103176.75;6310239;22;45397;-81
2022/01/28 01:56:05;;;;;;;;;29.75;27.00;;;;;9.27;75.50;103154.34;6310566;22;45254;-82
2022/01/28 01:58:32;;;;;;;;;30.50;27.00;;;;;9.32;75.69;103175.59;6283136;22;45215;-81
2022/01/28 02:01:01;;;;;;;;;26.50;23.50;;;;;9.28;75.71;103170.22;6282128;22;45560;-81
2022/01/28 02:03:29;;;;;;;;;28.25;20.25;;;;;9.25;75.53;103159.56;6310373;22;46658;-82
2022/01/28 02:05:57;;;;;;;;;36.25;30.50;;;;;9.33;75.26;103180.91;6309889;22;45412;-82
2022/01/28 02:08:25;;;;;;;;;30.50;28.25;;;;;9.33;75.28;103199.31;6309645;22;45163;-81
2022/01/28 02:10:57;;;;;;;;;29.75;25.25;;;;;9.25;75.37;103191.13;6281187;22;45182;-81
2022/01/28 02:13:24;;;;;;;;;29.75;26.75;;;;;9.31;75.55;103193.09;6309718;22;45303;-81
2022/01/28 02:15:49;;;;;;;;;30.50;26.00;;;;;9.26;75.13;103195.53;6281925;22;45283;-81
2022/01/28 02:18:17;;;;;;;;;31.25;26.25;;;;;9.17;75.35;103178.50;6282130;22;45251;-81
2022/01/28 02:20:47;;;;;;;;;31.50;29.25;;;;;9.15;75.27;103183.69;6281760;22;45505;-83
2022/01/28 02:23:20;;;;;;;;;31.75;28.25;;;;;9.26;75.43;103207.78;6280872;22;47842;-81
2022/01/28 02:25:46;;;;;;;;;31.50;25.25;;;;;9.19;75.49;103187.31;6310047;22;45404;-81
2022/01/28 02:28:15;;;;;;;;;30.50;25.50;;;;;9.19;75.59;103192.56;6309931;22;45150;-80
2022/01/28 02:30:45;;;;;;;;;30.75;26.25;;;;;9.24;75.56;103197.19;6281670;22;45405;-81
2022/01/28 02:33:18;;;;;;;;;31.50;27.25;;;;;9.26;75.50;103202.53;6309562;22;45216;-81
2022/01/28 02:35:47;;;;;;;;;30.25;24.00;;;;;9.16;75.21;103188.09;6310125;22;45361;-81
2022/01/28 02:38:18;;;;;;;;;29.00;24.75;;;;;9.08;75.07;103185.97;6284012;22;45272;-81
2022/01/28 02:40:56;;;;;;;;;28.25;26.75;;;;;9.11;75.42;103208.03;6284107;22;45385;-80
2022/01/28 02:43:46;;;;;;;;;30.50;27.25;;;;;9.15;75.54;103217.84;6311084;22;46015;-81
2022/01/28 02:46:16;;;;;;;;;28.25;21.50;;;;;9.08;75.14;103205.25;6311584;22;45309;-81
2022/01/28 02:49:02;;;;;;;;;32.75;27.25;;;;;9.03;75.37;103193.66;6286319;22;45255;-81
2022/01/28 02:51:32;;;;;;;;;29.75;24.25;;;;;9.09;75.29;103208.78;6314229;22;45392;-81
2022/01/28 02:54:11;;;;;;;;;33.25;26.75;;;;;9.05;75.46;103198.16;6313856;22;46385;-81
2022/01/28 02:56:39;;;;;;;;;28.25;25.25;;;;;9.05;75.92;103198.16;6285646;22;45206;-82
2022/01/28 02:59:06;;;;;;;;;28.25;26.00;;;;;9.11;75.77;103205.38;6313481;22;45227;-81
2022/01/28 03:01:32;;;;;;;;;30.75;26.25;;;;;9.07;75.85;103202.59;6313991;22;45377;-82
2022/01/28 03:04:03;;;;;;;;;27.50;23.50;;;;;9.09;75.73;103193.94;6314095;22;46528;-81
2022/01/28 03:06:28;;;;;;;;;29.75;26.00;;;;;9.15;75.77;103199.44;6313199;22;45387;-82
2022/01/28 03:08:59;;;;;;;;;34.75;26.75;;;;;9.11;75.61;103194.00;6310780;22;45910;-83
2022/01/28 03:11:42;;;;;;;;;31.75;24.25;;;;;9.06;75.56;103191.16;6310962;22;45312;-82
2022/01/28 03:17:48;;;;;;;;;34.00;29.50;;;;;9.03;75.92;103168.31;6309974;22;45114;-81
2022/01/28 03:19:53;;;;;;;;;30.50;26.25;;;;;9.09;75.91;103178.19;6303577;22;45372;-82
2022/01/28 03:22:24;;;;;;;;;30.00;26.25;;;;;8.98;75.82;103161.97;6310895;22;45258;-82
2022/01/28 03:24:52;;;;;;;;;35.00;32.50;;;;;9.08;75.81;103168.47;6281822;22;47265;-81
2022/01/28 03:27:50;;;;;;;;;34.00;28.00;;;;;9.10;75.79;103176.44;6282472;22;45425;-81
2022/01/28 03:30:10;;;;;;;;;31.00;28.50;;;;;9.09;75.84;103175.56;6309069;22;45291;-82
2022/01/28 03:32:38;;;;;;;;;30.25;26.00;;;;;9.08;75.58;103175.47;6310182;22;45189;-82
2022/01/28 03:35:06;;;;;;;;;38.50;31.50;;;;;9.10;75.91;103176.44;6310556;22;46343;-82
2022/01/28 03:37:31;;;;;;;;;27.50;23.25;;;;;9.17;75.55;103182.03;6282884;22;45325;-82
2022/01/28 03:39:57;;;;;;;;;34.75;27.50;;;;;9.15;75.65;103188.03;6310702;22;45614;-81
2022/01/28 03:42:22;;;;;;;;;34.50;29.50;;;;;9.17;75.49;103189.91;6311058;22;45448;-82
2022/01/28 03:44:50;;;;;;;;;29.50;28.50;;;;;9.12;75.55;103177.41;6311691;22;45385;-82
2022/01/28 03:47:15;;;;;;;;;29.25;25.00;;;;;9.15;75.80;103186.31;6314354;22;45299;-82
2022/01/28 03:49:40;;;;;;;;;29.75;25.00;;;;;9.15;75.56;103191.56;6286240;22;45291;-82
2022/01/28 03:52:08;;;;;;;;;35.50;28.25;;;;;9.17;75.44;103194.25;6313761;22;45302;-81
2022/01/28 03:54:34;;;;;;;;;30.75;28.50;;;;;9.20;75.72;103208.41;6310584;22;45195;-82
2022/01/28 03:56:59;;;;;;;;;31.50;27.75;;;;;9.18;75.54;103212.72;6282557;22;45238;-82
2022/01/28 03:59:25;;;;;;;;;34.75;29.00;;;;;9.25;75.29;103230.53;6311181;22;45416;-82
2022/01/28 04:01:55;;;;;;;;;37.50;35.25;;;;;9.22;75.22;103229.50;6311189;22;45144;-81
2022/01/28 04:12:19;;;;;;;;;33.25;26.25;;;;;9.16;75.12;103218.72;6310488;22;45188;-81
2022/01/28 04:15:01;;;;;;;;;34.75;29.50;;;;;9.18;75.12;103217.06;6310077;22;45293;-81
2022/01/28 04:17:26;;;;;;;;;33.75;30.50;;;;;9.15;75.19;103214.31;6282251;22;45181;-81
2022/01/28 04:19:54;;;;;;;;;36.25;32.75;;;;;9.22;75.22;103217.28;6309907;22;45299;-80
2022/01/28 04:22:20;;;;;;;;;32.25;29.25;;;;;9.22;75.33;103213.72;6310121;22;45371;-81
2022/01/28 04:24:48;;;;;;;;;33.25;29.00;;;;;9.21;75.00;103219.81;6309700;22;45328;-81
2022/01/28 04:27:16;;;;;;;;;41.50;31.25;;;;;9.15;74.78;103216.94;6310078;22;45286;-81
2022/01/28 04:29:47;;;;;;;;;36.75;31.00;;;;;9.22;75.28;103232.13;6310481;22;45239;-83
2022/01/28 04:32:17;;;;;;;;;33.50;28.25;;;;;9.21;75.10;103241.75;6281982;22;45463;-82
2022/01/28 04:34:42;;;;;;;;;29.50;24.00;;;;;9.19;74.81;103242.50;6281470;22;47104;-82
2022/01/28 04:50:32;;;;;;;;;32.75;24.50;;;;;9.15;74.93;103251.13;6310225;22;45151;-82
2022/01/28 04:55:44;;;;;;;;;26.00;21.00;;;;;9.02;74.50;103229.56;6311665;22;45280;-82
2022/01/28 05:08:45;;;;;;;;;32.25;25.75;;;;;9.00;74.27;103246.09;6309404;22;45235;-81
2022/01/28 05:27:22;;;;;;;;;33.25;27.50;;;;;8.97;74.42;103272.22;6310121;22;45305;-82
2022/01/28 05:29:50;;;;;;;;;33.50;27.00;;;;;9.03;74.64;103276.03;6282135;22;45129;-82
2022/01/28 05:32:17;;;;;;;;;32.50;25.50;;;;;9.06;74.33;103277.88;6310248;22;45259;-82
2022/01/28 05:34:43;;;;;;;;;26.00;21.75;;;;;9.04;74.24;103282.19;6309886;22;45446;-82
2022/01/28 05:37:11;;;;;;;;;33.75;27.50;;;;;8.98;74.44;103274.00;6310166;22;46385;-81
2022/01/28 05:39:37;;;;;;;;;29.25;22.25;;;;;9.00;74.33;103281.13;6281970;22;45180;-81
2022/01/28 05:42:04;;;;;;;;;34.00;27.75;;;;;9.00;74.26;103280.25;6310309;22;45213;-82
2022/01/28 05:44:31;;;;;;;;;31.50;27.00;;;;;9.02;74.14;103292.63;6310419;22;45163;-82
2022/01/28 05:47:03;;;;;;;;;31.25;25.75;;;;;9.03;74.32;103294.44;6310966;22;45500;-82
2022/01/28 05:49:28;;;;;;;;;30.00;27.50;;;;;8.98;74.41;103295.03;6282483;22;45192;-82
2022/01/28 05:51:56;;;;;;;;;30.75;25.50;;;;;9.03;74.09;103302.31;6281372;22;45271;-81
2022/01/28 05:54:24;;;;;;;;;35.75;27.75;;;;;9.04;74.00;103311.97;6309461;22;45416;-81
2022/01/28 05:56:51;;;;;;;;;31.50;25.25;;;;;8.96;74.03;103299.34;6310209;22;45317;-81
2022/01/28 05:59:19;;;;;;;;;29.50;26.75;;;;;9.04;74.14;103305.84;6309626;22;45097;-82
2022/01/28 06:01:47;;;;;;;;;35.50;27.75;;;;;9.00;74.30;103306.50;6281558;22;45209;-81
2022/01/28 06:04:15;;;;;;;;;30.75;28.50;;;;;9.02;74.06;103315.38;6281685;22;45374;-81
2022/01/28 06:06:43;;;;;;;;;26.50;21.75;;;;;9.02;73.65;103318.88;6309627;22;45516;-81
2022/01/28 06:09:11;;;;;;;;;32.25;27.75;;;;;9.10;73.30;103328.84;6281329;22;45846;-87
2022/01/28 06:11:39;;;;;;;;;23.75;20.75;;;;;9.11;73.31;103328.91;6309690;22;45410;-88
2022/01/28 06:14:05;;;;;;;;;25.50;24.50;;;;;9.08;73.14;103315.63;6280882;22;45393;-86
2022/01/28 06:16:31;;;;;;;;;29.25;27.00;;;;;9.08;73.04;103317.38;6309193;22;45566;-84
2022/01/28 06:18:56;;;;;;;;;26.75;24.50;;;;;9.15;73.21;103332.59;6309467;22;45129;-83
2022/01/28 06:21:21;;;;;;;;;46.00;35.75;;;;;9.13;73.13;103335.13;6308253;22;45152;-85
2022/01/28 06:23:47;;;;;;;;;36.25;29.25;;;;;9.04;73.11;103318.97;6309266;22;45480;-83
2022/01/28 06:26:12;;;;;;;;;33.25;28.25;;;;;9.05;73.56;103326.91;6281240;22;48170;-84
2022/01/28 06:28:37;;;;;;;;;32.50;27.75;;;;;8.99;73.84;103317.88;6309537;22;45175;-84
2022/01/28 06:31:05;;;;;;;;;32.25;28.25;;;;;9.03;73.90;103325.03;6281824;22;45168;-84
2022/01/28 06:33:34;;;;;;;;;35.00;26.50;;;;;8.95;73.86;103316.81;6309755;22;45164;-84
2022/01/28 06:35:59;;;;;;;;;35.75;29.75;;;;;8.97;74.33;103322.16;6308992;22;45397;-84
2022/01/28 06:38:25;;;;;;;;;37.50;32.25;;;;;8.95;73.86;103318.53;6306965;22;45378;-85
2022/01/28 06:40:51;;;;;;;;;36.75;29.25;;;;;8.93;74.07;103313.25;6309767;22;45307;-86
2022/01/28 06:43:21;;;;;;;;;37.50;31.75;;;;;9.01;73.72;103330.25;6281648;22;45178;-86
2022/01/28 06:45:47;;;;;;;;;32.75;27.00;;;;;8.96;73.72;103330.88;6309891;22;46074;-89
2022/01/28 06:48:15;;;;;;;;;30.50;25.50;;;;;8.89;73.57;103327.06;6309387;22;45417;-87
2022/01/28 06:50:43;;;;;;;;;36.50;29.50;;;;;8.92;73.85;103337.69;6309895;22;45369;-88
2022/01/28 06:53:10;;;;;;;;;32.75;27.75;;;;;8.81;73.80;103324.09;6280478;22;45683;-88
2022/01/28 06:55:36;;;;;;;;;28.75;25.75;;;;;8.92;73.81;103342.94;6281861;22;47778;-89
2022/01/28 06:58:05;;;;;;;;;29.00;26.50;;;;;8.87;73.93;103336.59;6281926;22;45314;-89
2022/01/28 07:00:36;;;;;;;;;35.00;29.50;;;;;8.93;73.99;103354.38;6311061;22;45295;-89
2022/01/28 07:03:01;;;;;;;;;26.00;22.50;;;;;8.95;73.70;103363.22;6282150;22;45913;-90
2022/01/28 07:05:27;;;;;;;;;31.75;25.00;;;;;8.90;74.02;103347.25;6281561;22;48147;-87
2022/01/28 07:07:52;;;;;;;;;38.25;25.25;;;;;8.79;73.96;103328.38;6281903;22;45860;-89
2022/01/28 07:10:20;;;;;;;;;32.25;26.50;;;;;8.88;73.77;103340.13;6282602;22;45293;-90
2022/01/28 07:12:45;;;;;;;;;28.00;26.00;;;;;8.87;73.85;103333.06;6283999;22;45259;-88
2022/01/28 07:15:16;;;;;;;;;29.75;26.75;;;;;8.88;73.74;103342.78;6282087;22;46060;-87
2022/01/28 07:17:41;;;;;;;;;29.50;24.75;;;;;8.90;73.50;103355.16;6281564;22;45260;-85
2022/01/28 07:20:12;;;;;;;;;25.00;18.75;;;;;8.95;73.60;103368.47;6286434;22;44877;-88
2022/01/28 07:22:38;;;;;;;;;28.75;26.50;;;;;8.92;73.48;103379.72;6285038;22;45604;-89
2022/01/28 07:25:04;;;;;;;;;27.25;25.00;;;;;8.84;73.38;103365.34;6285088;22;46528;-89
2022/01/28 07:27:31;;;;;;;;;30.00;22.50;;;;;8.85;73.13;103375.06;6288322;22;45192;-83
2022/01/28 07:30:00;;;;;;;;;35.00;25.00;;;;;8.76;72.98;103359.75;6317879;22;45303;-88
2022/01/28 07:32:25;;;;;;;;;29.00;25.25;;;;;8.81;72.82;103373.97;6287566;22;45355;-86
2022/01/28 07:34:58;;;;;;;;;35.75;25.50;;;;;8.71;72.92;103363.00;6308900;22;46576;-91
2022/01/28 07:37:24;;;;;;;;;30.75;27.50;;;;;8.74;73.11;103371.94;6285795;22;45270;-89
2022/01/28 07:39:52;;;;;;;;;40.75;30.25;;;;;8.72;72.73;103370.94;6282682;22;45343;-89
2022/01/28 07:42:36;;;;;;;;;31.00;26.75;;;;;8.72;72.34;103381.47;6283538;22;45303;-89
2022/01/28 07:45:02;;;;;;;;;35.00;26.00;;;;;8.70;72.46;103384.84;6282759;22;47270;-89
2022/01/28 07:47:28;;;;;;;;;34.25;23.50;;;;;8.69;72.12;103393.56;6283021;22;45899;-88
2022/01/28 07:49:56;;;;;;;;;31.25;27.00;;;;;8.59;72.43;103384.34;6311342;22;45106;-88
2022/01/28 07:52:22;;;;;;;;;36.25;29.50;;;;;8.70;72.16;103411.09;6290120;22;45355;-88
2022/01/28 07:54:50;;;;;;;;;30.75;28.50;;;;;8.66;71.97;103415.31;6309158;22;46904;-87
2022/01/28 07:57:22;;;;;;;;;34.25;26.25;;;;;8.63;71.82;103407.28;6281159;22;45764;-88
2022/01/28 07:59:47;;;;;;;;;35.75;27.25;;;;;8.62;71.72;103408.09;6281966;22;45695;-88
2022/01/28 08:02:13;;;;;;;;;32.00;28.25;;;;;8.63;71.48;103416.88;6312343;22;45440;-87
2022/01/28 08:04:39;;;;;;;;;35.25;31.25;;;;;8.68;71.31;103423.25;6319955;22;46032;-87
2022/01/28 08:07:05;;;;;;;;;28.75;25.00;;;;;8.61;71.50;103407.22;6284233;22;45360;-87
2022/01/28 08:09:33;;;;;;;;;34.25;27.00;;;;;8.60;71.77;103410.66;6282216;22;45746;-89
2022/01/28 08:12:01;;;;;;;;;28.50;27.75;;;;;8.72;71.45;103427.84;6282629;22;45472;-87
2022/01/28 08:14:28;;;;;;;;;36.00;26.50;;;;;8.68;71.75;103425.88;6282010;22;47063;-88
2022/01/28 08:16:56;;;;;;;;;35.50;27.50;;;;;8.68;71.27;103432.03;6282046;22;45271;-88
2022/01/28 08:19:23;;;;;;;;;30.25;27.25;;;;;8.54;71.21;103409.47;6282398;22;45365;-87
2022/01/28 08:21:49;;;;;;;;;31.75;25.25;;;;;8.68;71.21;103439.00;6282607;22;45409;-86
2022/01/28 08:24:19;;;;;;;;;32.50;28.00;;;;;8.58;71.50;103420.19;6283624;22;46178;-87
2022/01/28 08:26:45;;;;;;;;;32.50;25.75;;;;;8.67;71.51;103431.97;6283554;22;45882;-88
2022/01/28 08:29:16;;;;;;;;;28.75;27.00;;;;;8.57;70.95;103423.63;6282045;22;45295;-87
2022/01/28 08:31:41;;;;;;;;;30.25;24.25;;;;;8.61;71.09;103419.44;6310944;22;45389;-87
2022/01/28 08:34:09;;;;;;;;;31.50;25.75;;;;;8.72;71.30;103444.50;6291229;22;46016;-88
2022/01/28 08:36:40;;;;;;;;;34.00;25.75;;;;;8.71;71.15;103450.53;6311507;22;45270;-88
2022/01/28 08:39:06;;;;;;;;;29.00;24.50;;;;;8.69;71.16;103449.59;6282941;22;45329;-88
2022/01/28 08:41:35;;;;;;;;;29.00;25.50;;;;;8.70;71.04;103461.88;6310542;22;45263;-87
2022/01/28 08:44:00;;;;;;;;;30.50;23.75;;;;;8.66;70.89;103453.78;6282100;22;47173;-88
2022/01/28 08:46:26;;;;;;;;;30.50;25.75;;;;;8.69;71.16;103460.09;6288406;22;45675;-88
2022/01/28 08:48:56;;;;;;;;;33.75;30.00;;;;;8.63;71.11;103454.53;6321923;22;45212;-88
2022/01/28 08:51:22;;;;;;;;;30.50;25.50;;;;;8.69;71.54;103461.84;6289943;22;45317;-87
2022/01/28 08:53:54;;;;;;;;;30.50;25.75;;;;;8.79;71.23;103480.72;6321426;22;45347;-87
2022/01/28 08:56:20;;;;;;;;;29.25;27.50;;;;;8.81;71.44;103483.41;6293260;22;45610;-88
2022/01/28 08:58:47;;;;;;;;;28.75;24.00;;;;;8.81;71.12;103500.06;6291528;22;45147;-88
2022/01/28 09:01:13;;;;;;;;;24.50;21.50;;;;;8.75;70.93;103480.50;6318753;22;45315;-87
2022/01/28 09:03:38;;;;;;;;;34.00;28.25;;;;;8.91;71.34;103503.16;6286543;22;47049;-88
2022/01/28 09:06:04;;;;;;;;;28.25;26.50;;;;;8.93;71.08;103496.25;6282241;22;45486;-88
2022/01/28 09:08:32;;;;;;;;;25.00;22.50;;;;;8.93;71.01;103491.00;6281988;22;45506;-88
2022/01/28 09:11:28;;;;;;;;;30.75;24.00;;;;;8.87;70.77;103475.81;6308579;22;45654;-88
2022/01/28 09:13:45;;;;;;;;;29.00;23.00;;;;;8.90;70.77;103477.69;6309264;22;45194;-88
2022/01/28 09:16:13;;;;;;;;;27.75;21.50;;;;;9.05;70.68;103492.44;6282539;22;45204;-88
2022/01/28 09:18:39;;;;;;;;;30.50;23.75;;;;;9.10;70.33;103500.56;6283841;22;45255;-88
2022/01/28 09:21:13;;;;;;;;;31.25;26.50;;;;;9.08;70.07;103489.06;6283820;22;45393;-88
2022/01/28 09:23:40;;;;;;;;;24.75;23.75;;;;;9.18;70.04;103500.91;6283205;22;48170;-88
2022/01/28 09:26:06;;;;;;;;;23.50;22.00;;;;;9.10;69.88;103479.53;6283063;22;45238;-87
2022/01/28 09:28:31;;;;;;;;;25.75;24.75;;;;;9.15;69.94;103488.53;6283575;22;45208;-87
2022/01/28 09:30:57;;;;;;;;;27.75;25.00;;;;;9.24;69.47;103496.84;6281960;22;45701;-88
2022/01/28 09:33:28;;;;;;;;;25.25;21.00;;;;;9.26;69.64;103500.44;6282212;22;47921;-88
2022/01/28 09:35:54;;;;;;;;;27.00;21.75;;;;;9.18;69.37;103470.28;6280126;22;45373;-88
2022/01/28 09:38:23;;;;;;;;;24.25;22.25;;;;;9.32;69.07;103488.41;6311010;22;45302;-88
2022/01/28 09:40:59;;;;;;;;;27.00;22.25;;;;;9.30;69.25;103485.69;6310229;22;45257;-88
2022/01/28 09:43:27;;;;;;;;;24.25;21.50;;;;;9.27;69.24;103468.09;6282531;22;47036;-88
2022/01/28 09:45:52;;;;;;;;;19.50;19.25;;;;;9.32;68.96;103478.78;6281434;22;45954;-88
2022/01/28 09:48:23;;;;;;;;;28.75;24.50;;;;;9.35;69.00;103478.03;6282577;22;45370;-87
2022/01/28 09:50:56;;;;;;;;;33.00;28.00;;;;;9.47;69.06;103492.63;6281572;22;45271;-88
2022/01/28 09:53:22;;;;;;;;;34.25;30.00;;;;;9.39;68.79;103472.97;6282249;22;46881;-88
2022/01/28 09:55:47;;;;;;;;;30.25;28.75;;;;;9.46;68.80;103471.53;6281445;22;45913;-88
2022/01/28 09:58:21;;;;;;;;;26.25;23.50;;;;;9.61;68.70;103489.72;6284136;22;45236;-88
2022/01/28 10:00:55;;;;;;;;;43.50;35.25;;;;;9.61;68.81;103481.84;6282071;22;45366;-87
2022/01/28 10:03:27;;;;;;;;;26.75;23.50;;;;;9.69;68.39;103488.34;6311816;22;47814;-88
2022/01/28 10:05:52;;;;;;;;;30.00;25.25;;;;;9.77;68.54;103497.47;6311437;22;45373;-89
2022/01/28 10:08:28;;;;;;;;;34.25;26.75;;;;;9.77;68.26;103496.56;6283969;22;45281;-89
2022/01/28 10:11:02;;;;;;;;;36.25;29.50;;;;;9.73;68.42;103495.53;6282874;22;45259;-89
2022/01/28 10:13:43;;;;;;;;;33.50;26.50;;;;;9.63;68.12;103483.72;6308441;22;47061;-88
2022/01/28 10:16:16;;;;;;;;;22.75;20.00;;;;;9.70;68.09;103493.69;6283410;22;45393;-88
2022/01/28 10:18:45;;;;;;;;;31.50;23.75;;;;;9.73;68.21;103511.31;6281897;22;45270;-88
2022/01/28 10:21:39;;;;;;;;;28.00;26.75;;;;;9.60;68.12;103485.31;6282372;22;45733;-88
2022/01/28 10:24:18;;;;;;;;;31.00;23.00;;;;;9.76;68.21;103508.81;6281243;22;47110;-88
2022/01/28 10:27:09;;;;;;;;;33.50;22.75;;;;;9.74;68.24;103497.34;6283005;22;45791;-89
2022/01/28 10:29:35;;;;;;;;;33.00;27.50;;;;;9.83;68.18;103508.25;6310160;22;45184;-88
2022/01/28 10:32:04;;;;;;;;;29.25;29.25;;;;;9.72;68.30;103497.25;6312291;22;45466;-89
2022/01/28 10:34:33;;;;;;;;;27.00;23.25;;;;;9.77;68.07;103492.19;6282767;22;46900;-88
2022/01/28 10:37:24;;;;;;;;;30.75;26.50;;;;;9.96;67.95;103519.31;6310335;22;45198;-88
2022/01/28 10:39:50;;;;;;;;;28.75;26.25;;;;;9.90;68.12;103523.47;6270414;22;45377;-87
2022/01/28 10:42:34;;;;;;;;;28.50;25.00;;;;;9.87;67.54;103514.56;6310081;22;45326;-89
2022/01/28 10:45:03;;;;;;;;;30.50;26.25;;;;;9.93;67.43;103526.25;6283376;22;46946;-88
2022/01/28 10:47:58;;;;;;;;;30.00;25.50;;;;;9.92;67.48;103537.59;6283208;22;45198;-89
2022/01/28 10:50:31;;;;;;;;;26.50;23.50;;;;;9.79;67.51;103511.59;6315686;22;45152;-88
2022/01/28 10:53:14;;;;;;;;;28.25;23.25;;;;;9.79;66.96;103506.31;6287190;22;45362;-88
2022/01/28 10:55:53;;;;;;;;;28.25;25.75;;;;;9.88;67.29;103519.88;6283587;22;48199;-89
2022/01/28 10:58:21;;;;;;;;;25.00;22.50;;;;;9.84;67.23;103515.31;6282832;22;45192;-86
2022/01/28 11:00:54;;;;;;;;;22.75;21.75;;;;;9.96;67.11;103533.38;6281316;22;45167;-88
2022/01/28 11:03:26;;;;;;;;;28.50;24.00;;;;;9.93;67.00;103525.34;6281731;22;45488;-88
2022/01/28 11:05:58;;;;;;;;;28.25;24.75;;;;;10.00;67.16;103539.69;6281518;22;47182;-88
2022/01/28 11:08:26;;;;;;;;;26.25;23.75;;;;;9.85;67.02;103517.13;6310287;22;45261;-88
2022/01/28 11:10:52;;;;;;;;;25.75;21.25;;;;;9.87;66.81;103523.34;6283324;22;45196;-88
2022/01/28 11:13:21;;;;;;;;;25.50;22.75;;;;;9.88;66.72;103517.25;6289155;22;45255;-87
2022/01/28 11:15:47;;;;;;;;;25.00;21.50;;;;;9.86;66.71;103516.31;6288798;22;47894;-88
2022/01/28 11:18:16;;;;;;;;;24.25;22.25;;;;;9.91;66.47;103514.75;6287848;22;45275;-88
2022/01/28 11:21:05;;;;;;;;;26.00;20.00;;;;;10.03;66.84;103519.66;6279579;22;45201;-87
2022/01/28 11:23:33;;;;;;;;;29.75;25.50;;;;;10.07;66.82;103515.41;6278503;22;45341;-89
2022/01/28 11:26:37;;;;;;;;;23.50;22.00;;;;;10.11;66.43;103512.09;6280053;22;45409;-90
2022/01/28 11:29:40;;;;;;;;;21.75;20.50;;;;;10.14;66.33;103514.84;6278920;22;45395;-88
2022/01/28 11:32:14;;;;;;;;;25.75;21.50;;;;;10.15;65.93;103509.63;6274791;22;45353;-89
2022/01/28 11:34:57;;;;;;;;;21.00;21.00;;;;;10.15;66.12;103506.09;6280789;22;45184;-88
2022/01/28 11:37:34;;;;;;;;;18.50;17.50;;;;;10.19;65.72;103501.91;6281344;22;47111;-89
2022/01/28 11:40:14;;;;;;;;;23.00;21.50;;;;;10.21;65.77;103492.31;6279818;22;45227;-88
2022/01/28 11:42:40;;;;;;;;;21.75;19.50;;;;;10.27;65.45;103498.78;6279429;22;45412;-89
2022/01/28 11:45:12;;;;;;;;;18.00;17.00;;;;;10.18;65.29;103469.38;6279353;22;45349;-90
2022/01/28 11:47:53;;;;;;;;;26.25;23.75;;;;;10.27;65.19;103480.34;6280449;22;45430;-90
2022/01/28 11:50:21;;;;;;;;;26.50;22.75;;;;;10.29;65.24;103475.13;6277372;22;45240;-90
2022/01/28 11:52:59;;;;;;;;;22.00;20.25;;;;;10.42;65.12;103487.06;6279041;22;45260;-90
2022/01/28 11:55:27;;;;;;;;;23.00;18.00;;;;;10.47;65.19;103483.78;6277974;22;45789;-91
2022/01/28 11:58:00;;;;;;;;;29.50;25.50;;;;;10.52;64.95;103476.97;6277330;22;47027;-90
2022/01/28 12:00:29;;;;;;;;;21.00;18.50;;;;;10.57;64.79;103469.28;6278335;22;45299;-89
2022/01/28 12:03:02;;;;;;;;;27.00;20.50;;;;;10.55;64.42;103474.47;6277675;22;45223;-91
2022/01/28 12:05:30;;;;;;;;;21.75;17.00;;;;;10.50;64.46;103462.84;6279582;22;45593;-88
2022/01/28 12:08:03;;;;;;;;;23.25;19.50;;;;;10.52;64.26;103452.38;6278451;22;46511;-89
2022/01/28 12:10:39;;;;;;;;;24.00;20.50;;;;;10.51;63.95;103455.84;6280603;22;45376;-91
2022/01/28 12:13:16;;;;;;;;;20.75;19.50;;;;;10.45;63.95;103442.41;6278063;22;45180;-90
2022/01/28 12:16:30;;;;;;;;;22.25;19.75;;;;;10.41;63.86;103435.25;6280452;22;45459;-90
2022/01/28 12:18:57;;;;;;;;;21.75;17.50;;;;;10.53;63.74;103447.19;6265791;22;45518;-90
2022/01/28 12:21:28;;;;;;;;;17.50;15.00;;;;;10.59;63.58;103446.53;6277366;22;45339;-91
2022/01/28 12:24:19;;;;;;;;;19.25;17.50;;;;;10.57;63.22;103421.84;6280155;22;44565;-89
2022/01/28 12:27:13;;;;;;;;;21.00;19.25;;;;;10.70;63.09;103432.03;6278291;22;46052;-90
2022/01/28 12:29:50;;;;;;;;;17.00;16.50;;;;;10.69;62.79;103413.53;6280638;22;48343;-89
2022/01/28 12:32:25;;;;;;;;;19.00;17.00;;;;;10.57;62.75;103401.66;6282777;22;45271;-88
2022/01/28 12:34:53;;;;;;;;;23.25;20.75;;;;;10.60;62.84;103412.31;6285761;22;45298;-89
2022/01/28 12:37:22;;;;;;;;;26.50;20.25;;;;;10.57;62.84;103414.84;6312361;22;45428;-91
2022/01/28 12:40:05;;;;;;;;;21.75;17.00;;;;;10.58;62.68;103418.38;6280153;22;47012;-90
2022/01/28 12:42:39;;;;;;;;;20.50;18.00;;;;;10.56;62.68;103417.44;6279251;22;46212;-90
2022/01/28 12:45:05;;;;;;;;;29.00;22.00;;;;;10.61;62.78;103426.38;6278066;22;45195;-90
2022/01/28 12:47:34;;;;;;;;;24.00;22.25;;;;;10.49;62.92;103412.75;6281428;22;45191;-89
2022/01/28 12:50:03;;;;;;;;;20.25;18.75;;;;;10.57;62.80;103430.66;6276760;22;47011;-90
2022/01/28 12:52:35;;;;;;;;;19.00;16.50;;;;;10.46;62.98;103423.16;6278628;22;45247;-89
2022/01/28 12:55:01;;;;;;;;;20.75;16.00;;;;;10.51;63.04;103438.31;6280059;22;45373;-89
2022/01/28 12:57:43;;;;;;;;;26.00;21.75;;;;;10.41;62.97;103419.44;6304632;22;45586;-90